Situs API Video Gratis Terbaik

AVDBAPI.COM

Cari katalog, periksa data, dan salin URL API bersih dari satu dasbor cepat.

Telegram Gabung komunitas Telegram untuk update!
Today
30
Pembaruan Hari Ini
Censored
314171
Video Disensor
Total
474382
Total Video

Daftar Video

Data terbaru diurutkan berdasarkan waktu pembaruan.

ID Nama CODE Kategori Diperbarui API
271933 011519-840 Hasrat Telanjang! Becek Banget! 4 Produksi Cumshot Vagina Tak Terbendung dari Mio Futaba 011519-840 Tanpa sensor 2025-08-29 23:20:30 API
271932 H0930-KI180818 Koleksi Video Request Paling Hot H0930-KI180818 Tanpa sensor 2025-08-29 23:20:20 API
271931 H4610-KI190627 Yuka Sakura 26 Tahun H4610-KI190627 Tanpa sensor 2025-08-29 23:20:10 API
271930 060617-100 Ibu Rumah Tangga Pekerja Akuntansi Seksi di Kantor 060617-100 Tanpa sensor 2025-08-29 23:20:00 API
271929 120517-01 Tolong fotoin aku, si budak M yang haus perhatian 120517-01 Tanpa sensor 2025-08-29 23:19:50 API
271928 011619-841 Versi Belum Rilis ~ Operasi Bocornya Rasa Malu 9 ~ Kanna Kitayama 011619-841 Tanpa sensor 2025-08-29 23:19:40 API
271927 HEYZO-1926 Aku Suka Empeng! Maki, Wanita Matang yang Gatel HEYZO-1926 Tanpa sensor 2025-08-29 23:19:30 API
271926 H0930-KI180820 Wanita Matang 37 Tahun Izumi Sakamori H0930-KI180820 Tanpa sensor 2025-08-29 23:19:20 API
271924 H4610-ORI1691 Gadis Cantik 20 Tahun Kinuma Sara H4610-ORI1691 Tanpa sensor 2025-08-29 23:19:00 API
271923 011819-842 Dynamite Hana Aoyama 011819-842 Tanpa sensor 2025-08-29 23:18:50 API
271922 C0930-HITOZUMA1202 Istri Seksi Yukawa Shunkai Usia 36 Tahun C0930-HITOZUMA1202 Tanpa sensor 2025-08-29 23:18:40 API
271921 FC2-PPV-3688623 Ingin Mendominasi dan Meniduri Wanita Karir Seksi FC2-PPV-3688623 Tanpa sensor 2025-08-29 23:18:30 API
271920 BANK-079 Gadis Amatir Cantik Disemprot Sperma di Dalam Vagina! 5 Kali Cumshot Berturut BANK-079 Disensor (Mosaik) 2025-08-29 23:18:20 API
271919 120217-01 Wawancara AV Amatir ~ Cewek G Cup Baca Novel Erotis Sambil Masturbasi ~ 120217-01 Tanpa sensor 2025-08-29 23:18:10 API
271918 061017-102 Wanita Matang Pemalu dalam Syuting Gachi Pertama yang Menggairahkan 061017-102 Tanpa sensor 2025-08-29 23:18:00 API
271917 H4610-KI190630 Naoko Imokawa H4610-KI190630 Tanpa sensor 2025-08-29 23:17:50 API
271916 H0930-KI180823 Kana Miyagi Wanita 30 Tahun Yang Seksi H0930-KI180823 Tanpa sensor 2025-08-29 23:17:40 API
271915 C0930-HITOZUMA1203 Saori Sonosumi, 27 Tahun C0930-HITOZUMA1203 Tanpa sensor 2025-08-29 23:17:30 API
271914 K1246 Wanita Mangsa - K1246 Tanpa sensor 2025-08-29 23:17:20 API
271913 HEYZO-1928 Negosiasi Seksual dengan Wanita Cantik Menggoda dan Sabun Mewah HEYZO-1928 Tanpa sensor 2025-08-29 23:17:10 API
271912 011919-843 Erena Sasamiya, tukang pijat luar negeri yang menggoda pelanggan di tempat pijat 011919-843 Tanpa sensor 2025-08-29 23:17:00 API
271911 061317-103 Membelai Payudara dengan Sperma Hingga Mengeluarkan ASI 061317-103 Tanpa sensor 2025-08-29 23:16:50 API
271910 H4610-KI190629 Yukari Nishimaki Wanita 28 Tahun H4610-KI190629 Tanpa sensor 2025-08-29 23:16:40 API
271908 H0930-ORI1509 Wanita Seksi 36 Tahun Arisa Saito H0930-ORI1509 Tanpa sensor 2025-08-29 23:16:20 API
271906 121217-01 Era Seragam ~ Bergairah! Pakai Seragam Sambil Ngentot ~ 121217-01 Tanpa sensor 2025-08-29 23:16:00 API
271905 061517-104 Merayu Ibu Rumah Tangga 28 ~ Overmen 666 ~ 061517-104 Tanpa sensor 2025-08-29 23:15:50 API
271904 C0930-HITOZUMA1204 Rimi Yano Cantik Usia 24 Tahun C0930-HITOZUMA1204 Tanpa sensor 2025-08-29 23:15:40 API
271903 FC2-PPV-3601975 Ketemu lagi sama cewek desa seksi ini di situs kencan tanpa disadari FC2-PPV-3601975 Tanpa sensor 2025-08-29 23:15:30 API
271902 HEYZO-1929 Gadis Twintail Berseragam Jadi Cewek Cumi-cumi di Binkan! HEYZO-1929 Tanpa sensor 2025-08-29 23:15:20 API
271901 H0930-KI180826 Rinko Yoshitake Wanita Seksi 34 Tahun H0930-KI180826 Tanpa sensor 2025-08-29 23:15:10 API
271900 012219-844 Insting Liar! Wanita Matang Cantik Marina Matsumoto Diberondong Sperma Saat Standing Sex 012219-844 Tanpa sensor 2025-08-29 23:15:00 API
271899 H4610-KI190704 Azumi Yokohashi, Gadis Hot 21 Tahun H4610-KI190704 Tanpa sensor 2025-08-29 23:14:50 API
271898 120917-01 Wawancara AV Amatir - Aku daftar karena ingin belajar cara seks - 120917-01 Tanpa sensor 2025-08-29 23:14:40 API
271897 K1247 Wanita Mangsa - K1247 Tanpa sensor 2025-08-29 23:14:30 API
271896 C0930-HITOZUMA1205 Namie Ohara, Wanita Matang 35 Tahun yang Seksi C0930-HITOZUMA1205 Tanpa sensor 2025-08-29 23:14:20 API
271895 H0930-KI180828 Michiko Akashi Wanita 33 Tahun H0930-KI180828 Tanpa sensor 2025-08-29 23:14:10 API
271894 012319-845 Buku Foto Memek Nene Sakura 012319-845 Tanpa sensor 2025-08-29 23:14:00 API
271893 H4610-KI190706 Gold Pack Untuk Babe 20 Tahun H4610-KI190706 Tanpa sensor 2025-08-29 23:13:50 API
271892 FC2-PPV-3520022 [Rekaman Pribadi, Creampie] Wanita bersuami usia 35 tahun memutuskan menjual tubuhnya demi kabur dari suami kasar. Dia rela melakukan apa saja demi mengubah hidupnya yang menyedihkan FC2-PPV-3520022 Tanpa sensor 2025-08-29 23:13:40 API
271891 121417-01 Wawancara AV Amatir - Anak Gadis Amatir yang Gila Om-om 121417-01 Tanpa sensor 2025-08-29 23:13:30 API
271890 012419-846 Wanita Labil Pamer Tubuh ~ Aku ingin diintip dari gedung seberang ~ Miyu Shiina 012419-846 Tanpa sensor 2025-08-29 23:13:20 API
271889 HEYZO-1931 Aku bakal sikat amatir berbaju seragam yang vaginanya sudah dicukur bersih! HEYZO-1931 Tanpa sensor 2025-08-29 23:13:10 API
271887 H0930-KI180830 Mayumi Aiba Wanita Matang 40 Tahun H0930-KI180830 Tanpa sensor 2025-08-29 23:12:50 API
271886 K1248 Wanita Mangsa - K1248 Tanpa sensor 2025-08-29 23:12:40 API
271885 C0930-HITOZUMA1208 Istri Seksi Reiko Ishigami Usia 37 Tahun C0930-HITOZUMA1208 Tanpa sensor 2025-08-29 23:12:30 API
271884 FC2-PPV-3534968 Talenta Langka Mika-chan, Gadis Cantik Masa Pemberontak Mengajari Blowjob dan Creampie FC2-PPV-3534968 Tanpa sensor 2025-08-29 23:12:20 API
271883 H4610-KI190707 Fumiho Shimazu Wanita Cantik 28 Tahun H4610-KI190707 Tanpa sensor 2025-08-29 23:12:10 API
271882 012519-847 Bos Perempuan Mesum - Aku Tidak Bisa Kerja, Perawatan Ini Terlalu Berbahaya 012519-847 Tanpa sensor 2025-08-29 23:12:00 API
271881 H0930-KI180901 Miyoko Oribe Wanita Seksi 36 Tahun H0930-KI180901 Tanpa sensor 2025-08-29 23:11:50 API
271880 121617-01 Kamera Tersembunyi! Langsung Gas Pol 3P Gaya Riding 121617-01 Tanpa sensor 2025-08-29 23:11:40 API